Resums METAR propers

 

KSJC - San Jose, California, USA
Distància des de l'estació: NE 14km
Actualització: 21/04/2018 21:53 UTC
Alguns núvols
Alguns núvols
 Vent del ONO
Vent: ONO 15 km/h
Temperatura: 26°C
Rosada: 11°C
Humitat: 39%
Baròmetre: 1017.9 hPa
Nuvolositat: Alguns núvols
Visibilitat: 16 km
Detalls nuvolositat: Alguns núvols 5486 m
2018/04/21 21:53 KSJC 212153Z 30008KT 10SM FEW180 26/11 A3006 RMK AO2 SLP178 T02610111
KNUQ - Moffett Nas/Mtn, California, USA
Distància des de l'estació: N 14km
Actualització: 21/04/2018 21:56 UTC
Seré
Seré
 Vent del N
Vent: N 15 km/h
Temperatura: 26°C
Rosada: 10°C
Humitat: 37%
Baròmetre: 1018.3 hPa
Nuvolositat: Seré
Visibilitat: 16 km
2018/04/21 21:56 KNUQ 212156Z 35008KT 10SM CLR 26/10 A3007 RMK AO2 SLP183 T02610100
 
KPAO - Palo Alto, California, USA
Distància des de l'estació: NNO 23km
Actualització: 21/04/2018 16:47 UTC
NO actualitzat
Seré
Seré
 Vent del N
Vent: N 9 km/h
Baròmetre: 1020.7 hPa
Nuvolositat: Seré
Visibilitat: 16 km
2018/04/21 16:47 KPAO 211647Z 36005KT 10SM SKC A3014
KRHV - San Jose/Reid, California, USA
Distància des de l'estació: ENE 19km
Actualització: 21/04/2018 22:47 UTC
Seré
Seré
 Vent del NNO
Vent: NNO 19 km/h
Temperatura: 27°C
Temp. xafogor: 27°C
Rosada: 13°C
Humitat: 42%
Baròmetre: 1016.6 hPa
Nuvolositat: Seré
Visibilitat: 16 km
2018/04/21 22:47 KRHV 212247Z 33010KT 10SM SKC 27/13 A3002
 
KOAK - Oakland, California, USA
Distància des de l'estació: NNO 50km
Actualització: 21/04/2018 21:53 UTC
Alguns núvols
Alguns núvols
 Vent del O
Vent: O 11 km/h
Temperatura: 21°C
Rosada: 13°C
Humitat: 60%
Baròmetre: 1018.6 hPa
Nuvolositat: Alguns núvols
Visibilitat: 13 km
Detalls nuvolositat: Alguns núvols 6096 m
2018/04/21 21:53 KOAK 212153Z 26006KT 8SM FEW200 21/13 A3008 RMK AO2 SLP186 T02110128
KSQL - San Carlos Airpo, California, USA
Distància des de l'estació: NO 34km
Actualització: 21/04/2018 22:47 UTC
Alguns núvols
Alguns núvols
 Vent del N
Vent: N 13 km/h
Temperatura: 26°C
Rosada: 10°C
Humitat: 37%
Baròmetre: 1017.6 hPa
Nuvolositat: Alguns núvols
Visibilitat: 16 km
Detalls nuvolositat: Alguns núvols 6096 m
2018/04/21 22:47 KSQL 212247Z 35007KT 10SM FEW200 26/10 A3005
 
KSFO - San Francisco, California, USA
Distància des de l'estació: NO 49km
Actualització: 21/04/2018 21:56 UTC
Alguns núvols
Alguns núvols
 Vent del ONO
Vent: ONO 24 km/h
Temperatura: 23°C
Rosada: 9°C
Humitat: 41%
Baròmetre: 1018.3 hPa
Nuvolositat: Alguns núvols
Visibilitat: 16 km
Detalls nuvolositat: Alguns núvols 6096 m
2018/04/21 21:56 KSFO 212156Z 30013KT 10SM FEW200 23/09 A3007 RMK AO2 SLP183 T02280094
KE16 - San Martin, California, USA
Distància des de l'estació: ESE 43km
Actualització: 21/04/2018 22:35 UTC
Seré
Seré
 Vent del NO
Vent: NO 13 km/h
Temperatura: 27°C
Rosada: 4°C
Humitat: 23%
Baròmetre: 1017.6 hPa
Nuvolositat: Seré
Visibilitat: 16 km
2018/04/21 22:35 KE16 212235Z AUTO 32007KT 10SM CLR 27/04 A3005 RMK AO2
 
KWVI - Watsonville, California, USA
Distància des de l'estació: SSE 44km
Actualització: 21/04/2018 21:53 UTC
Seré
Seré
 Vent del S
Vent: S 11 km/h
Temperatura: 23°C
Rosada: 13°C
Humitat: 53%
Baròmetre: 1017.9 hPa
Nuvolositat: Seré
Visibilitat: 16 km
2018/04/21 21:53 KWVI 212153Z AUTO 17006KT 10SM CLR 23/13 A3006 RMK AO2 SLP180 T02330133 TSNO $
KHAF - Half Moon Bay, California, USA
Distància des de l'estació: ONO 50km
Actualització: 21/04/2018 22:40 UTC
Seré
Seré
 Vent del NO
Vent: NO 26 km/h
Temperatura: 15°C
Rosada: 10°C
Humitat: 72%
Baròmetre: 1019.3 hPa
Nuvolositat: Seré
Visibilitat: 11 km
2018/04/21 22:40 KHAF 212240Z AUTO 32014KT 7SM CLR 15/10 A3010 RMK AO2
 
KHWD - Hayward, California, USA
Distància des de l'estació: N 44km
Actualització: 21/04/2018 21:54 UTC
Seré
Seré
 Vent del O
Vent: O 17 km/h
Temperatura: 24°C
Rosada: 10°C
Humitat: 41%
Baròmetre: 1018.3 hPa
Nuvolositat: Seré
Visibilitat: 16 km
2018/04/21 21:54 KHWD 212154Z 28009KT 10SM CLR 24/10 A3007 RMK AO2 SLP191 T02390100
KLVK - Livermore, California, USA
Distància des de l'estació: NNE 51km
Actualització: 21/04/2018 21:53 UTC
Seré
Seré
 Vent del varies
Vent: varies 6 km/h
Temperatura: 26°C
Rosada: 12°C
Humitat: 42%
Baròmetre: 1017.9 hPa
Nuvolositat: Seré
Visibilitat: 16 km
2018/04/21 21:53 KLVK 212153Z VRB03KT 10SM CLR 26/12 A3006 RMK AO2 SLP176 T02610122